x

Isle Of Shoals, Nh (iosn3) Weather Station

1:00pm - Fri 29th Apr 2016 All times are EDT. -4 hours from GMT.

  • Wind
    16mph
  • 空気 Temp 44°f
  • Sea Pressure 1021.5mb
  • Isle Of Shoals, Nh
  • Isle Of Shoals, Nh

More Historic Weather Station data

Upgrade to MSW Pro to gain access to the past 30 days of data for over 8000 Wavebouys and Weather Stations around the globe.

Join Pro

Comparision Forecast

View Surf forecast
   
Fri 04/29 1:00pm 16
mph
1021.5mb 44f
12:00pm 14 15 mph 1022.1mb 44f
11:00am 11
mph
1022.5mb 44f
10:00am 10
mph
1022.3mb 44f
9:00am 9 10 mph 1022.1mb 44f
8:00am 9
mph
1021.9mb 44f
7:00am 8 9 mph 1021.7mb 43f
6:00am 16 18 mph 1020.9mb 42f
5:00am 15 17 mph 1020.4mb 42f
4:00am 20 22 mph 1020.1mb 42f
3:00am 13 16 mph 1019.7mb 44f
2:00am 10 11 mph 1019.6mb 44f
1:00am 15 16 mph 1019.4mb 44f
12:00am 17 18 mph 1019.1mb 44f
Thu 04/28 11:00pm 16 17 mph 1018.9mb 44f
10:00pm 18
mph
1018.6mb 44f
9:00pm 16 17 mph 1018.4mb 44f
8:00pm 16 17 mph 1017.9mb 44f
7:00pm 20 21 mph 1017.4mb 44f
6:00pm 18 20 mph 1017.1mb 44f
5:00pm 17 20 mph 1016mb 43f
4:00pm 20 21 mph 1015.6mb 43f
3:00pm 23 24 mph 1016.2mb 43f
2:00pm 18 20 mph 1016.5mb 43f
1:00pm 16
mph
1016.6mb 42f
12:00pm 13 14 mph 1017.1mb 42f
11:00am 11 13 mph 1017.2mb 42f
10:00am 9 10 mph 1017.3mb 41f
9:00am  -  1 mph 1017.5mb 41f
8:00am 7 8 mph 1016.9mb 40f
7:00am 14 15 mph 1016.2mb 39f
6:00am 11
mph
1015.1mb 41f
5:00am 15 16 mph 1014.3mb 41f
4:00am 9 10 mph 1013.5mb 42f
3:00am 10 11 mph 1013mb 43f
2:00am 11 13 mph 1012.7mb 44f
1:00am 11
mph
1012.2mb 45f
12:00am 22 23 mph 1011.3mb 46f
Wed 04/27 11:00pm 23 25 mph 1010.3mb 48f
10:00pm 21 26 mph 1008.9mb 48f
9:00pm 10 13 mph 1008.2mb 49f
8:00pm 17 20 mph 1007.6mb 48f
7:00pm 20 22 mph 1007.6mb 47f
6:00pm 23 25 mph 1008.1mb 47f
5:00pm 22 24 mph 1008.4mb 45f
4:00pm 22 24 mph 1008.7mb 45f
3:00pm 21 22 mph 1009.4mb 45f
2:00pm 13 16 mph 1010.3mb 46f
1:00pm 9 10 mph 1010.7mb 49f
12:00pm 6 7 mph 1010.9mb 47f
11:00am 9 10 mph 1011.7mb 46f
10:00am 14 15 mph 1011.9mb 44f
9:00am 14 15 mph 1012mb 41f
7:00am 7 8 mph 1011.9mb 37f
6:00am 11 13 mph 1011.5mb 37f
5:00am 13 14 mph 1010.8mb 38f
4:00am 16 18 mph 1010.5mb 38f
3:00am 14 15 mph 1010mb 37f
2:00am 13 14 mph 1010.2mb 38f
1:00am 13 15 mph 1010.4mb 37f
12:00am 11 14 mph 1010.5mb 37f
Tue 04/26 11:00pm 11 13 mph 1010.5mb 37f
10:00pm 9
mph
1010.2mb 37f
9:00pm 7 8 mph 1010.1mb 37f
8:00pm 8 9 mph 1010mb 36f
7:00pm 10 13 mph 1009.7mb 36f
6:00pm 18 22 mph 1009.3mb 36f
5:00pm 16 20 mph 1008.6mb 35f
4:00pm 21 22 mph 1007.9mb 35f
3:00pm 21 24 mph 1008.1mb 35f
2:00pm 23 25 mph 1008.3mb 35f
1:00pm 28 29 mph 1008.3mb 36f
12:00pm 29 32 mph 1007.8mb 36f
11:00am 22 24 mph 1009.8mb 39f
10:00am 22 24 mph 1009.8mb 40f
9:00am 18 21 mph 1010.5mb 39f
8:00am 22 25 mph 1011.1mb 38f
7:00am 20 23 mph 1011.9mb 38f
6:00am 26 29 mph 1011.6mb 40f
5:00am 24 28 mph 1012.1mb 42f
4:00am 25 30 mph 1012.2mb 44f
3:00am 25 29 mph 1012.1mb 45f
2:00am 25 30 mph 1011.9mb 46f
1:00am 23 25 mph 1012.7mb 48f
12:00am 14 15 mph 1013mb 50f
Mon 04/25 11:00pm 8
mph
1013mb 55f
10:00pm 10 11 mph 1012.8mb 55f
9:00pm 14 15 mph 1012.7mb 56f
8:00pm 13 14 mph 1012mb 56f
7:00pm 18 20 mph 1011.3mb 57f